Time;durP1;ratioP1;P1;durP2;ratioP2;P2;SDS_P1;SDS_P2;PMS_P1;PMS_P2;Temp;Humidity;BMP_temperature;BMP_pressure;BME280_temperature;BME280_humidity;BME280_pressure;Samples;Min_cycle;Max_cycle;Signal;HPM_P1;HPM_P2
2022/06/30 00:01:15;;;;;;;;;;;;;;;20.60;65.91;100998.59;5072884;28;19916;-60
2022/06/30 00:03:40;;;;;;;;;;;;;;;20.58;66.10;101005.25;5072868;28;20310;-60
2022/06/30 00:06:05;;;;;;;;;;;;;;;20.53;65.68;100998.66;5072985;28;19923;-60
2022/06/30 00:08:30;;;;;;;;;;;;;;;20.52;65.69;100999.69;5072872;28;19923;-60
2022/06/30 00:11:06;;;;;;;;;;;;;;;20.49;65.66;100992.09;5072564;28;19922;-60
2022/06/30 00:13:31;;;;;;;;;;;;;;;20.47;66.23;100994.16;5072832;28;19962;-60
2022/06/30 00:15:57;;;;;;;;;;;;;;;20.41;66.03;100990.50;5072676;28;19917;-60
2022/06/30 00:18:22;;;;;;;;;;;;;;;20.41;65.74;100989.66;5072744;28;19916;-59
2022/06/30 00:20:47;;;;;;;;;;;;;;;20.38;65.96;100982.06;5072637;28;19916;-59
2022/06/30 00:23:12;;;;;;;;;;;;;;;20.39;65.61;100981.00;5072787;28;19928;-60
2022/06/30 00:25:37;;;;;;;;;;;;;;;20.39;65.68;100981.00;5072748;28;19924;-60
2022/06/30 00:28:03;;;;;;;;;;;;;;;20.37;65.31;100972.34;5072497;28;20363;-60
2022/06/30 00:30:28;;;;;;;;;;;;;;;20.35;65.38;100974.41;5072624;28;19916;-59
2022/06/30 00:32:53;;;;;;;;;;;;;;;20.32;65.64;100973.00;5072567;28;19917;-60
2022/06/30 00:35:19;;;;;;;;;;;;;;;20.29;65.46;100976.94;5072531;28;19916;-61
2022/06/30 00:37:44;;;;;;;;;;;;;;;20.27;65.43;100968.28;5072649;28;20003;-59
2022/06/30 00:40:09;;;;;;;;;;;;;;;20.26;65.51;100977.41;5072592;28;19923;-60
2022/06/30 00:42:34;;;;;;;;;;;;;;;20.27;65.74;100972.81;5072552;28;20367;-60
2022/06/30 00:44:59;;;;;;;;;;;;;;;20.22;65.90;100976.19;5072589;28;20373;-60
2022/06/30 00:47:25;;;;;;;;;;;;;;;20.13;66.17;100975.66;5072381;28;19916;-59
2022/06/30 00:49:51;;;;;;;;;;;;;;;20.09;66.11;100981.72;5072563;28;19966;-60
2022/06/30 00:52:17;;;;;;;;;;;;;;;20.01;66.46;100980.97;5072399;28;19916;-60
2022/06/30 00:54:43;;;;;;;;;;;;;;;19.96;66.38;100982.66;5072503;28;20112;-60
2022/06/30 00:57:10;;;;;;;;;;;;;;;19.88;66.73;100984.56;5072428;28;20373;-60
2022/06/30 00:59:36;;;;;;;;;;;;;;;19.87;66.58;100979.38;5072498;28;20007;-60
2022/06/30 01:02:02;;;;;;;;;;;;;;;19.84;66.86;100985.22;5053990;28;19924;-60
2022/06/30 01:04:29;;;;;;;;;;;;;;;19.80;66.78;100984.84;5072452;28;19920;-60
2022/06/30 01:06:55;;;;;;;;;;;;;;;19.74;67.02;100981.16;5072275;28;19946;-59
2022/06/30 01:14:49;;;;;;;;;;;;;;;19.65;67.32;100981.66;5072370;28;19939;-60
2022/06/30 01:17:14;;;;;;;;;;;;;;;19.63;67.17;100979.16;5072009;28;19916;-59
2022/06/30 01:19:50;;;;;;;;;;;;;;;19.62;67.69;100982.91;5072266;28;19923;-60
2022/06/30 01:22:15;;;;;;;;;;;;;;;19.59;67.50;100980.66;5072218;28;19967;-59
2022/06/30 01:24:40;;;;;;;;;;;;;;;19.58;67.62;100979.00;5075999;28;19943;-61
2022/06/30 01:27:05;;;;;;;;;;;;;;;19.55;67.68;100979.44;5075517;28;20274;-59
2022/06/30 01:29:32;;;;;;;;;;;;;;;19.54;67.99;100978.59;5057887;28;20069;-59
2022/06/30 01:31:57;;;;;;;;;;;;;;;19.53;67.76;100978.84;5075839;28;19924;-60
2022/06/30 01:34:22;;;;;;;;;;;;;;;19.51;67.85;100983.59;5075771;28;19920;-60
2022/06/30 01:36:47;;;;;;;;;;;;;;;19.49;67.87;100984.66;5075627;28;20397;-59
2022/06/30 01:39:12;;;;;;;;;;;;;;;19.46;67.75;100987.78;5075762;28;20008;-60
2022/06/30 01:41:38;;;;;;;;;;;;;;;19.43;67.79;100985.53;5075362;28;20260;-59
2022/06/30 01:44:03;;;;;;;;;;;;;;;19.43;67.80;100988.22;5075574;28;19924;-60
2022/06/30 01:46:28;;;;;;;;;;;;;;;19.41;67.93;100986.78;5075038;28;19995;-59
2022/06/30 01:48:53;;;;;;;;;;;;;;;19.39;67.99;100988.88;5075610;28;19969;-59
2022/06/30 01:51:18;;;;;;;;;;;;;;;19.37;67.94;100986.38;5075333;28;20509;-59
2022/06/30 01:53:43;;;;;;;;;;;;;;;19.36;67.99;100990.13;5075435;28;19922;-59
2022/06/30 01:56:09;;;;;;;;;;;;;;;19.34;68.14;100992.22;5057283;28;19917;-60
2022/06/30 01:58:35;;;;;;;;;;;;;;;19.31;68.04;100981.88;5071996;28;19956;-60
2022/06/30 02:01:00;;;;;;;;;;;;;;;19.29;67.97;100986.66;5074426;28;19924;-59
2022/06/30 02:03:25;;;;;;;;;;;;;;;19.26;67.96;100981.69;5074240;28;20413;-60
2022/06/30 02:05:50;;;;;;;;;;;;;;;19.24;68.09;100986.47;5067102;28;19920;-60
2022/06/30 02:08:16;;;;;;;;;;;;;;;19.21;68.12;100991.22;5074649;28;20315;-60
2022/06/30 02:10:41;;;;;;;;;;;;;;;19.18;68.40;100986.31;5079954;28;19921;-60
2022/06/30 02:13:06;;;;;;;;;;;;;;;19.17;68.15;100997.25;5074068;28;19969;-60
2022/06/30 02:15:36;;;;;;;;;;;;;;;19.13;68.31;101002.25;5073946;28;19923;-60
2022/06/30 02:18:03;;;;;;;;;;;;;;;19.09;68.51;101001.00;5074206;28;19924;-60
2022/06/30 02:20:28;;;;;;;;;;;;;;;19.07;68.30;101003.09;5074747;28;19951;-60
2022/06/30 02:22:55;;;;;;;;;;;;;;;19.05;68.31;101005.19;5074877;28;20001;-60
2022/06/30 02:25:20;;;;;;;;;;;;;;;19.02;68.55;101002.88;5074754;28;19916;-60
2022/06/30 02:27:46;;;;;;;;;;;;;;;19.00;68.50;101002.28;5074778;28;19973;-60
2022/06/30 02:30:12;;;;;;;;;;;;;;;18.99;68.60;101016.75;5074795;28;19942;-60
2022/06/30 02:32:37;;;;;;;;;;;;;;;18.91;68.90;101018.63;5074591;28;20578;-59
2022/06/30 02:35:03;;;;;;;;;;;;;;;18.85;68.90;101010.63;5073933;28;19920;-60
2022/06/30 02:37:28;;;;;;;;;;;;;;;18.83;68.88;101013.50;5074520;28;20007;-60
2022/06/30 02:39:53;;;;;;;;;;;;;;;18.79;69.08;101010.41;5074521;28;20547;-60
2022/06/30 02:42:19;;;;;;;;;;;;;;;18.77;68.87;101003.59;5074505;28;19993;-60
2022/06/30 02:44:44;;;;;;;;;;;;;;;18.74;69.96;101004.06;5074534;28;19921;-60
2022/06/30 02:47:09;;;;;;;;;;;;;;;18.66;69.76;101005.91;5074447;28;19916;-59
2022/06/30 02:49:36;;;;;;;;;;;;;;;18.61;70.31;101000.38;5074451;28;19955;-60
2022/06/30 02:52:01;;;;;;;;;;;;;;;18.57;69.66;100999.13;5074320;28;20336;-60
2022/06/30 02:54:26;;;;;;;;;;;;;;;18.55;69.20;101001.19;5074157;28;19955;-60
2022/06/30 02:56:51;;;;;;;;;;;;;;;18.54;69.56;101000.38;5074252;28;19923;-60
2022/06/30 02:59:16;;;;;;;;;;;;;;;18.53;69.83;100997.91;5073811;28;19951;-60
2022/06/30 03:01:42;;;;;;;;;;;;;;;18.51;69.58;100994.63;5074203;28;19969;-59
2022/06/30 03:04:07;;;;;;;;;;;;;;;18.46;69.55;100992.56;5074040;28;19923;-60
2022/06/30 03:06:33;;;;;;;;;;;;;;;18.46;69.72;100997.09;5074131;28;20440;-60
2022/06/30 03:08:58;;;;;;;;;;;;;;;18.44;69.69;100991.13;5073717;28;20363;-61
2022/06/30 03:11:24;;;;;;;;;;;;;;;18.41;69.69;100993.19;5073977;28;19969;-60
2022/06/30 03:13:49;;;;;;;;;;;;;;;18.40;69.79;100993.38;5073837;28;19916;-60
2022/06/30 03:16:15;;;;;;;;;;;;;;;18.36;69.95;100982.25;5073897;28;19917;-60
2022/06/30 03:18:40;;;;;;;;;;;;;;;18.34;69.60;100988.84;5073721;28;20385;-60
2022/06/30 03:21:06;;;;;;;;;;;;;;;18.31;69.78;100986.59;5073794;28;19970;-61
2022/06/30 03:23:31;;;;;;;;;;;;;;;18.27;69.98;100988.88;5073491;28;19937;-60
2022/06/30 03:25:56;;;;;;;;;;;;;;;18.24;70.07;100989.28;5073686;28;19923;-60
2022/06/30 03:28:21;;;;;;;;;;;;;;;18.23;70.23;100983.09;5073265;28;19928;-60
2022/06/30 03:30:47;;;;;;;;;;;;;;;18.22;70.03;100981.47;5073713;28;20325;-59
2022/06/30 03:33:13;;;;;;;;;;;;;;;18.22;70.04;100980.63;5073486;28;19956;-60
2022/06/30 03:35:38;;;;;;;;;;;;;;;18.20;70.06;100988.06;5073483;28;19956;-60
2022/06/30 03:38:04;;;;;;;;;;;;;;;18.17;70.22;100989.31;5073206;28;19925;-60
2022/06/30 03:40:29;;;;;;;;;;;;;;;18.14;70.31;100984.34;5073408;28;19916;-60
2022/06/30 03:42:55;;;;;;;;;;;;;;;18.13;70.29;100985.38;5073089;28;20403;-61
2022/06/30 03:45:20;;;;;;;;;;;;;;;18.11;70.30;100984.78;5073281;28;19986;-60
2022/06/30 03:47:45;;;;;;;;;;;;;;;18.09;70.37;100984.97;5072455;28;19973;-60
2022/06/30 03:50:10;;;;;;;;;;;;;;;18.09;70.20;100976.09;5073066;28;19917;-60
2022/06/30 03:52:35;;;;;;;;;;;;;;;18.06;70.21;100982.69;5073217;28;19920;-60
2022/06/30 03:55:00;;;;;;;;;;;;;;;18.05;70.38;100975.66;5072943;28;19916;-60
2022/06/30 03:57:26;;;;;;;;;;;;;;;18.05;70.45;100975.66;5041566;28;19917;-60
2022/06/30 03:59:51;;;;;;;;;;;;;;;18.06;70.65;100973.84;5073072;28;19931;-60
2022/06/30 04:02:16;;;;;;;;;;;;;;;18.05;70.61;100970.28;5070246;28;20007;-61
2022/06/30 04:04:41;;;;;;;;;;;;;;;18.03;70.22;100975.06;5058904;28;19916;-60
2022/06/30 04:07:07;;;;;;;;;;;;;;;18.02;70.50;100982.25;5072182;28;19917;-59
2022/06/30 04:09:32;;;;;;;;;;;;;;;18.02;70.50;100976.09;5071602;28;19917;-60
2022/06/30 04:11:57;;;;;;;;;;;;;;;18.01;70.58;100967.19;5073175;28;19924;-60
2022/06/30 04:14:22;;;;;;;;;;;;;;;18.01;70.43;100971.75;5072871;28;20367;-60
2022/06/30 04:16:48;;;;;;;;;;;;;;;18.01;70.75;100971.75;5054916;28;21258;-60
2022/06/30 04:19:13;;;;;;;;;;;;;;;18.01;70.45;100974.44;5073113;28;19921;-60
2022/06/30 04:21:38;;;;;;;;;;;;;;;17.99;70.45;100977.31;5072536;28;20378;-60
2022/06/30 04:24:03;;;;;;;;;;;;;;;18.04;70.95;100995.47;5072297;28;19977;-60
2022/06/30 04:26:28;;;;;;;;;;;;;;;17.94;73.01;100978.97;5072407;28;19924;-61
2022/06/30 04:28:54;;;;;;;;;;;;;;;17.92;71.55;100992.59;5072641;28;19916;-59
2022/06/30 04:34:03;;;;;;;;;;;;;;;17.93;71.36;100993.41;5072706;28;19947;-60
2022/06/30 04:36:29;;;;;;;;;;;;;;;17.97;71.03;100995.47;5072471;28;20375;-60
2022/06/30 04:38:54;;;;;;;;;;;;;;;18.08;71.41;101047.75;5054387;28;19920;-60
2022/06/30 04:41:26;;;;;;;;;;;;;;;18.11;71.73;100995.50;5072337;28;19920;-60
2022/06/30 04:43:52;;;;;;;;;;;;;;;17.97;71.82;101010.75;5072754;28;19917;-60
2022/06/30 04:46:17;;;;;;;;;;;;;;;17.93;71.98;101041.69;5072514;28;19917;-59
2022/06/30 04:48:42;;;;;;;;;;;;;;;17.91;71.91;101019.63;5072762;28;20020;-60
2022/06/30 04:51:08;;;;;;;;;;;;;;;17.90;71.85;101020.66;5072265;28;19940;-60
2022/06/30 04:53:33;;;;;;;;;;;;;;;17.97;72.94;101051.81;5072464;28;19916;-60
2022/06/30 04:55:58;;;;;;;;;;;;;;;17.82;74.21;101025.19;5072441;28;20275;-59
2022/06/30 04:58:23;;;;;;;;;;;;;;;17.86;73.68;101031.78;5074208;28;20367;-60
2022/06/30 05:00:48;;;;;;;;;;;;;;;17.77;74.05;101049.13;5076398;28;19917;-59
2022/06/30 05:03:14;;;;;;;;;;;;;;;17.68;74.12;101028.91;5076423;28;19917;-60
2022/06/30 05:05:39;;;;;;;;;;;;;;;17.64;74.08;101038.38;5076249;28;19916;-60
2022/06/30 05:08:05;;;;;;;;;;;;;;;17.60;73.96;101041.47;5076368;28;19920;-60
2022/06/30 05:10:30;;;;;;;;;;;;;;;17.60;74.83;101028.06;5076376;28;19916;-59
2022/06/30 05:12:55;;;;;;;;;;;;;;;17.66;74.68;101041.69;5076352;28;19951;-59
2022/06/30 05:15:20;;;;;;;;;;;;;;;17.60;74.54;101036.09;5076081;28;20378;-60
2022/06/30 05:17:46;;;;;;;;;;;;;;;17.59;74.96;101031.78;5075958;28;19920;-59
2022/06/30 05:20:11;;;;;;;;;;;;;;;17.71;74.59;101029.31;5075840;28;19923;-60
2022/06/30 05:22:36;;;;;;;;;;;;;;;17.69;74.38;101031.38;5075889;28;19920;-60
2022/06/30 05:27:46;;;;;;;;;;;;;;;17.80;74.62;101042.53;5075905;28;19982;-60
2022/06/30 05:30:12;;;;;;;;;;;;;;;17.79;77.42;101030.13;5075743;28;19920;-59
2022/06/30 05:32:37;;;;;;;;;;;;;;;17.86;75.69;101031.78;5075856;28;19916;-59
2022/06/30 05:35:03;;;;;;;;;;;;;;;17.84;75.55;101023.16;5075699;28;19966;-60
2022/06/30 05:37:28;;;;;;;;;;;;;;;17.90;75.75;101050.19;5057799;28;20298;-60
2022/06/30 05:39:53;;;;;;;;;;;;;;;17.77;75.25;101033.03;5075534;28;19923;-60
2022/06/30 05:42:18;;;;;;;;;;;;;;;17.78;75.77;101040.06;5075521;28;19924;-60
2022/06/30 05:44:45;;;;;;;;;;;;;;;17.77;75.35;101037.56;5075633;28;19916;-60
2022/06/30 05:47:10;;;;;;;;;;;;;;;17.78;75.40;101040.06;5075549;28;19918;-60
2022/06/30 05:49:37;;;;;;;;;;;;;;;17.92;75.76;101048.94;5057299;28;19975;-60
2022/06/30 05:52:02;;;;;;;;;;;;;;;17.99;75.69;101043.56;5075487;28;19920;-60
2022/06/30 05:54:27;;;;;;;;;;;;;;;17.98;75.31;101041.91;5075282;28;19923;-59
2022/06/30 05:56:52;;;;;;;;;;;;;;;18.07;75.39;101043.41;5075335;28;20011;-60
2022/06/30 05:59:18;;;;;;;;;;;;;;;18.01;75.45;101038.84;5075254;28;19916;-60
2022/06/30 06:01:43;;;;;;;;;;;;;;;18.13;75.41;101041.75;5075230;28;20382;-60
2022/06/30 06:04:08;;;;;;;;;;;;;;;18.05;75.04;101040.06;5075209;28;19969;-59
2022/06/30 06:06:33;;;;;;;;;;;;;;;18.04;75.09;101035.72;5074966;28;19923;-60
2022/06/30 06:08:59;;;;;;;;;;;;;;;18.08;75.20;101034.31;5074701;28;19924;-60
2022/06/30 06:11:25;;;;;;;;;;;;;;;18.18;75.25;101038.44;5074709;28;20370;-60
2022/06/30 06:13:50;;;;;;;;;;;;;;;18.18;75.10;101047.31;5075225;28;19924;-59
2022/06/30 06:16:15;;;;;;;;;;;;;;;18.24;74.86;101048.34;5075009;28;19917;-60
2022/06/30 06:18:40;;;;;;;;;;;;;;;18.44;74.86;101052.88;5074866;28;19917;-60
2022/06/30 06:21:06;;;;;;;;;;;;;;;18.35;74.62;101053.06;5075129;28;20283;-59
2022/06/30 06:23:31;;;;;;;;;;;;;;;18.51;75.32;101054.50;5074802;28;20256;-60
2022/06/30 06:25:56;;;;;;;;;;;;;;;18.47;74.73;101050.59;5074741;28;19924;-60
2022/06/30 06:31:05;;;;;;;;;;;;;;;18.63;75.50;101060.06;5074684;28;19927;-60
2022/06/30 06:33:30;;;;;;;;;;;;;;;18.68;75.00;101067.47;5074813;28;19916;-59
2022/06/30 06:35:56;;;;;;;;;;;;;;;18.77;74.84;101068.09;5074501;28;19948;-59
2022/06/30 06:38:21;;;;;;;;;;;;;;;18.85;74.97;101065.16;5074664;28;19921;-59
2022/06/30 06:40:47;;;;;;;;;;;;;;;18.91;74.65;101074.25;5074466;28;19999;-60
2022/06/30 06:43:12;;;;;;;;;;;;;;;18.99;74.42;101070.50;5074479;28;19916;-60
2022/06/30 06:45:37;;;;;;;;;;;;;;;18.96;74.31;101071.75;5074512;28;20402;-60
2022/06/30 06:48:03;;;;;;;;;;;;;;;19.14;74.69;101068.41;5074211;28;19966;-60
2022/06/30 06:50:29;;;;;;;;;;;;;;;19.17;74.18;101077.91;5074260;28;19920;-60
2022/06/30 06:52:54;;;;;;;;;;;;;;;19.18;73.83;101076.84;5074113;28;20003;-59
2022/06/30 06:55:20;;;;;;;;;;;;;;;19.25;74.06;101079.53;5074332;28;20008;-60
2022/06/30 06:57:46;;;;;;;;;;;;;;;19.37;74.24;101077.81;5074168;28;20361;-60
2022/06/30 07:00:14;;;;;;;;;;;;;;;19.43;74.07;101081.50;5071844;28;19992;-60
2022/06/30 07:02:42;;;;;;;;;;;;;;;19.49;73.94;101080.66;5073894;28;19971;-60
2022/06/30 07:05:08;;;;;;;;;;;;;;;19.55;73.76;101084.34;5074034;28;19985;-60
2022/06/30 07:07:33;;;;;;;;;;;;;;;19.61;73.75;101094.22;5073991;28;20371;-60
2022/06/30 07:09:59;;;;;;;;;;;;;;;19.68;73.65;101100.41;5074139;28;19924;-60
2022/06/30 07:12:24;;;;;;;;;;;;;;;19.61;73.31;101102.31;5073807;28;19942;-60
2022/06/30 07:14:50;;;;;;;;;;;;;;;19.67;73.32;101108.66;5073333;28;19946;-60
2022/06/30 07:17:15;;;;;;;;;;;;;;;19.65;73.15;101108.91;5073718;28;20001;-60
2022/06/30 07:19:40;;;;;;;;;;;;;;;19.61;73.08;101126.50;5073833;28;19931;-59
2022/06/30 07:22:06;;;;;;;;;;;;;;;19.60;72.92;101127.56;5073425;28;20061;-60
2022/06/30 07:24:31;;;;;;;;;;;;;;;19.69;73.13;101123.56;5055815;28;19916;-60
2022/06/30 07:26:56;;;;;;;;;;;;;;;19.76;72.31;101119.00;5073370;28;19921;-60
2022/06/30 07:29:21;;;;;;;;;;;;;;;19.73;72.35;101114.03;5073517;28;19917;-60
2022/06/30 07:31:47;;;;;;;;;;;;;;;19.83;73.28;101123.50;5073444;28;19917;-60
2022/06/30 07:34:13;;;;;;;;;;;;;;;19.85;72.10;101122.25;5073360;28;19944;-60
2022/06/30 07:36:40;;;;;;;;;;;;;;;19.93;72.28;101113.06;5073661;28;19916;-59
2022/06/30 07:39:05;;;;;;;;;;;;;;;20.01;72.24;101115.53;5073432;28;19920;-60
2022/06/30 07:41:32;;;;;;;;;;;;;;;20.09;72.24;101105.53;5073224;28;19978;-59
2022/06/30 07:43:57;;;;;;;;;;;;;;;20.16;71.64;101112.53;5072993;28;20020;-60
2022/06/30 07:46:22;;;;;;;;;;;;;;;20.22;71.75;101110.81;5073122;28;20003;-59
2022/06/30 07:48:48;;;;;;;;;;;;;;;20.32;71.16;101115.69;5073147;28;19916;-60
2022/06/30 07:51:14;;;;;;;;;;;;;;;20.31;71.25;101118.63;5073259;28;19951;-60
2022/06/30 07:53:40;;;;;;;;;;;;;;;20.35;71.04;101130.59;5073174;28;20401;-60
2022/06/30 07:56:05;;;;;;;;;;;;;;;20.34;70.96;101118.19;5072911;28;19916;-60
2022/06/30 07:58:30;;;;;;;;;;;;;;;20.47;70.44;101118.06;5072838;28;19923;-59
2022/06/30 08:00:55;;;;;;;;;;;;;;;20.46;70.71;101111.03;5073084;28;19917;-60
2022/06/30 08:03:20;;;;;;;;;;;;;;;20.68;69.75;101113.31;5072653;28;19975;-59
2022/06/30 08:05:46;;;;;;;;;;;;;;;20.63;68.72;101110.47;5072986;28;19962;-60
2022/06/30 08:08:11;;;;;;;;;;;;;;;20.68;69.57;101113.31;5072962;28;19917;-60
2022/06/30 08:10:36;;;;;;;;;;;;;;;20.76;69.34;101104.94;5041656;28;20291;-60
2022/06/30 08:13:02;;;;;;;;;;;;;;;20.88;69.73;101101.53;5072820;28;20372;-60
2022/06/30 08:15:27;;;;;;;;;;;;;;;20.97;68.85;101116.38;5072689;28;20716;-60
2022/06/30 08:17:52;;;;;;;;;;;;;;;21.06;68.86;101116.88;5072697;28;19932;-60
2022/06/30 08:20:17;;;;;;;;;;;;;;;21.13;67.73;101119.50;5072835;28;19974;-60
2022/06/30 08:22:42;;;;;;;;;;;;;;;21.17;68.35;101121.50;5072712;28;19925;-60
2022/06/30 08:25:08;;;;;;;;;;;;;;;21.23;68.42;101115.22;5072823;28;19956;-60
2022/06/30 08:27:33;;;;;;;;;;;;;;;21.31;67.93;101111.38;5072657;28;19990;-60
2022/06/30 08:29:58;;;;;;;;;;;;;;;21.42;67.55;101117.06;5072561;28;19916;-60
2022/06/30 08:32:23;;;;;;;;;;;;;;;21.46;67.65;101120.97;5072323;28;20260;-60
2022/06/30 08:34:49;;;;;;;;;;;;;;;21.46;66.82;101129.06;5072574;28;19970;-60
2022/06/30 08:37:14;;;;;;;;;;;;;;;21.53;67.35;101124.41;5072584;28;19954;-60
2022/06/30 08:42:23;;;;;;;;;;;;;;;21.66;66.87;101119.88;5072712;28;20334;-60
2022/06/30 08:47:32;;;;;;;;;;;;;;;21.79;66.22;101133.19;5072249;28;20389;-59
2022/06/30 08:49:57;;;;;;;;;;;;;;;21.85;65.13;101126.88;5072437;28;19948;-60
2022/06/30 08:52:25;;;;;;;;;;;;;;;21.86;65.51;101112.31;5072383;28;19920;-61
2022/06/30 08:54:51;;;;;;;;;;;;;;;21.93;64.74;101112.22;5072349;28;19916;-60
2022/06/30 08:57:17;;;;;;;;;;;;;;;21.88;64.78;101115.63;5072748;28;20256;-60
2022/06/30 08:59:42;;;;;;;;;;;;;;;21.95;65.24;101120.09;5070070;28;19938;-59
2022/06/30 09:02:07;;;;;;;;;;;;;;;22.06;64.98;101118.47;5072251;28;19970;-60
2022/06/30 09:04:32;;;;;;;;;;;;;;;22.21;63.89;101126.97;5072103;28;19920;-60
2022/06/30 09:06:58;;;;;;;;;;;;;;;22.22;63.90;101120.50;5072308;28;20031;-60
2022/06/30 09:09:23;;;;;;;;;;;;;;;22.29;63.62;101120.38;5072276;28;19943;-60
2022/06/30 09:11:50;;;;;;;;;;;;;;;22.31;63.32;101123.69;5054308;28;20542;-60
2022/06/30 09:14:34;;;;;;;;;;;;;;;22.35;62.54;101130.25;5072256;28;20359;-60
2022/06/30 09:17:00;;;;;;;;;;;;;;;22.32;62.75;101125.34;5072136;28;19916;-60
2022/06/30 09:19:25;;;;;;;;;;;;;;;22.35;62.25;101130.25;5072097;28;19917;-60
2022/06/30 09:22:04;;;;;;;;;;;;;;;22.40;62.83;101127.69;5071766;28;19940;-60
2022/06/30 09:24:29;;;;;;;;;;;;;;;22.48;61.76;101129.22;5071559;28;19917;-60
2022/06/30 09:27:07;;;;;;;;;;;;;;;22.41;61.78;101117.69;5071690;28;20263;-59
2022/06/30 09:29:33;;;;;;;;;;;;;;;22.53;62.10;101125.81;5071682;28;19952;-59
2022/06/30 09:31:58;;;;;;;;;;;;;;;22.70;61.31;101126.75;5053831;28;19951;-60
2022/06/30 09:34:23;;;;;;;;;;;;;;;22.71;60.81;101125.69;5071215;28;19920;-60
2022/06/30 09:36:49;;;;;;;;;;;;;;;22.73;60.43;101135.47;5071586;28;20258;-60
2022/06/30 09:39:16;;;;;;;;;;;;;;;22.65;60.31;101139.34;5071937;28;20419;-60
2022/06/30 09:41:41;;;;;;;;;;;;;;;22.68;60.97;101139.69;5072041;28;19917;-59
2022/06/30 09:44:15;;;;;;;;;;;;;;;22.66;61.27;101130.19;5071887;28;20260;-60
2022/06/30 09:46:53;;;;;;;;;;;;;;;22.74;59.71;101134.41;5075447;28;19917;-60
2022/06/30 09:49:29;;;;;;;;;;;;;;;22.66;60.67;101130.19;5075445;28;19934;-59
2022/06/30 09:51:54;;;;;;;;;;;;;;;22.80;60.71;101130.75;5075444;28;19917;-60
2022/06/30 09:54:19;;;;;;;;;;;;;;;22.91;60.11;101127.22;5075169;28;20049;-60
2022/06/30 09:56:58;;;;;;;;;;;;;;;23.02;60.66;101127.41;5075378;28;19924;-59
2022/06/30 09:59:24;;;;;;;;;;;;;;;23.28;59.44;101130.66;5075002;28;19924;-60
2022/06/30 10:01:53;;;;;;;;;;;;;;;23.33;59.92;101134.31;5075162;28;19916;-60
2022/06/30 10:04:18;;;;;;;;;;;;;;;23.43;59.56;101132.88;5075068;28;20383;-60
2022/06/30 10:06:44;;;;;;;;;;;;;;;23.49;60.25;101124.59;5075123;28;20007;-60
2022/06/30 10:09:09;;;;;;;;;;;;;;;23.57;59.34;101133.41;5075101;28;19917;-60
2022/06/30 10:11:35;;;;;;;;;;;;;;;23.65;59.82;101135.72;5074995;28;19916;-60
2022/06/30 10:14:00;;;;;;;;;;;;;;;23.78;58.28;101138.13;5074861;28;19951;-59
2022/06/30 10:16:27;;;;;;;;;;;;;;;23.90;58.42;101138.09;5074827;28;19916;-60
2022/06/30 10:18:52;;;;;;;;;;;;;;;23.95;58.80;101150.06;5074887;28;19916;-60
2022/06/30 10:21:20;;;;;;;;;;;;;;;23.91;58.06;101141.59;5074792;28;20445;-60
2022/06/30 10:23:46;;;;;;;;;;;;;;;23.86;57.71;101136.09;5074882;28;19919;-61
2022/06/30 10:27:12;;;;;;;;;;;;;;;23.82;57.56;101121.41;5074502;28;20446;-60
2022/06/30 10:28:57;;;;;;;;;;;;;;;23.95;58.46;101128.38;5063049;28;19921;-60
2022/06/30 10:31:33;;;;;;;;;;;;;;;23.95;58.29;101126.50;5074463;28;19916;-60
2022/06/30 10:33:58;;;;;;;;;;;;;;;23.97;58.32;101124.38;5074532;28;19999;-60
2022/06/30 10:36:25;;;;;;;;;;;;;;;23.95;58.40;101131.94;5074601;28;20011;-60
2022/06/30 10:38:51;;;;;;;;;;;;;;;23.96;58.34;101119.19;5074669;28;19917;-60
2022/06/30 10:41:17;;;;;;;;;;;;;;;24.07;58.02;101126.44;5074330;28;19928;-60
2022/06/30 10:44:02;;;;;;;;;;;;;;;24.09;58.27;101134.34;5074707;28;19920;-60
2022/06/30 10:46:27;;;;;;;;;;;;;;;24.17;56.96;101125.78;5074318;28;19986;-60
2022/06/30 10:48:56;;;;;;;;;;;;;;;24.13;57.36;101119.25;5074403;28;20370;-61
2022/06/30 10:51:22;;;;;;;;;;;;;;;24.23;57.28;101129.44;5074245;28;20287;-61
2022/06/30 10:53:48;;;;;;;;;;;;;;;24.31;56.44;101121.72;5073950;28;19962;-60
2022/06/30 10:56:14;;;;;;;;;;;;;;;24.37;57.61;101113.66;5073732;28;19920;-61
2022/06/30 10:58:59;;;;;;;;;;;;;;;24.40;57.16;101110.44;5074126;28;20394;-61
2022/06/30 11:01:24;;;;;;;;;;;;;;;24.29;57.01;101118.44;5073916;28;19923;-60
2022/06/30 11:03:49;;;;;;;;;;;;;;;24.23;57.17;101135.66;5073938;28;19917;-60
2022/06/30 11:06:16;;;;;;;;;;;;;;;24.18;57.42;101127.47;5073804;28;20438;-60
2022/06/30 11:08:59;;;;;;;;;;;;;;;24.08;58.00;101133.50;5074127;28;19924;-60
2022/06/30 11:11:24;;;;;;;;;;;;;;;23.99;58.12;101135.81;5073942;28;20015;-60
2022/06/30 11:13:51;;;;;;;;;;;;;;;23.97;57.79;101131.69;5073709;28;19999;-60
2022/06/30 11:16:19;;;;;;;;;;;;;;;23.96;57.97;101120.03;5073771;28;19970;-60
2022/06/30 11:18:45;;;;;;;;;;;;;;;23.84;58.48;101116.56;5073488;28;20273;-60
2022/06/30 11:21:10;;;;;;;;;;;;;;;23.82;58.64;101118.72;5073334;28;19920;-60
2022/06/30 11:23:38;;;;;;;;;;;;;;;23.72;58.65;101109.31;5073375;28;19924;-60
2022/06/30 11:28:50;;;;;;;;;;;;;;;23.70;58.73;101108.75;5073293;28;19946;-60
2022/06/30 11:31:31;;;;;;;;;;;;;;;23.77;58.58;101112.13;5073183;28;19920;-60
2022/06/30 11:34:10;;;;;;;;;;;;;;;23.82;58.45;101097.03;5073360;28;19971;-60
2022/06/30 11:36:37;;;;;;;;;;;;;;;23.76;57.74;101105.06;5073207;28;19916;-60
2022/06/30 11:39:04;;;;;;;;;;;;;;;23.51;58.02;101100.00;5073344;28;19916;-60
2022/06/30 11:44:13;;;;;;;;;;;;;;;23.58;58.05;101102.59;5073555;28;19927;-60
2022/06/30 11:46:58;;;;;;;;;;;;;;;23.61;58.23;101102.09;5055004;28;19916;-60
2022/06/30 11:49:24;;;;;;;;;;;;;;;23.69;57.79;101093.59;5073116;28;19963;-60
2022/06/30 11:51:50;;;;;;;;;;;;;;;23.52;58.34;101093.53;5071852;28;19970;-60
2022/06/30 11:54:16;;;;;;;;;;;;;;;23.39;58.89;101083.84;5071652;28;20345;-60
2022/06/30 11:56:48;;;;;;;;;;;;;;;23.35;58.92;101077.25;5072251;28;19923;-60
2022/06/30 11:59:14;;;;;;;;;;;;;;;23.28;59.46;101073.84;5072746;28;19921;-60
2022/06/30 12:01:39;;;;;;;;;;;;;;;23.43;58.99;101066.03;5072726;28;19920;-60
2022/06/30 12:04:11;;;;;;;;;;;;;;;23.57;59.05;101065.72;5072874;28;19920;-60
2022/06/30 12:06:37;;;;;;;;;;;;;;;23.74;58.95;101060.34;5072356;28;19952;-61
2022/06/30 12:09:02;;;;;;;;;;;;;;;23.70;58.92;101051.06;5072211;28;19944;-60
2022/06/30 12:11:30;;;;;;;;;;;;;;;23.66;58.47;101048.03;5072797;28;19991;-60
2022/06/30 12:13:55;;;;;;;;;;;;;;;23.75;57.53;101037.63;5072789;28;19939;-61
2022/06/30 12:16:20;;;;;;;;;;;;;;;23.83;57.98;101033.69;5072556;28;20410;-60
2022/06/30 12:18:46;;;;;;;;;;;;;;;24.01;58.87;101041.56;5072054;28;19999;-61
2022/06/30 12:21:11;;;;;;;;;;;;;;;24.23;58.04;101038.09;5072460;28;19917;-61
2022/06/30 12:23:37;;;;;;;;;;;;;;;24.30;57.77;101038.78;5072497;28;19923;-60
2022/06/30 12:26:04;;;;;;;;;;;;;;;24.34;56.69;101033.69;5072928;28;19917;-61
2022/06/30 12:28:42;;;;;;;;;;;;;;;24.43;56.35;101025.94;5072407;28;19920;-61
2022/06/30 12:31:07;;;;;;;;;;;;;;;24.69;57.89;101015.41;5072686;28;19932;-61
2022/06/30 12:33:37;;;;;;;;;;;;;;;24.76;56.74;101013.31;5059140;28;19921;-61
2022/06/30 12:36:02;;;;;;;;;;;;;;;24.77;56.25;101019.56;5072446;28;19916;-61
2022/06/30 12:38:27;;;;;;;;;;;;;;;24.67;56.74;101015.66;5072405;28;20411;-60
2022/06/30 12:40:54;;;;;;;;;;;;;;;24.66;56.69;101026.78;5072499;28;19928;-61
2022/06/30 12:43:19;;;;;;;;;;;;;;;24.51;56.48;101024.69;5054205;28;19916;-61
2022/06/30 12:45:55;;;;;;;;;;;;;;;24.47;57.69;101020.84;5072571;28;20374;-61
2022/06/30 12:48:40;;;;;;;;;;;;;;;24.64;56.90;101020.78;5072369;28;19931;-61
2022/06/30 12:51:05;;;;;;;;;;;;;;;24.79;57.55;101030.97;5072339;28;19923;-61
2022/06/30 12:53:30;;;;;;;;;;;;;;;24.83;56.86;101029.44;5072226;28;19916;-61
2022/06/30 12:55:56;;;;;;;;;;;;;;;24.70;56.92;101025.19;5072157;28;19917;-61